sensor_id;sensor_type;location;lat;lon;timestamp;P1;durP1;ratioP1;P2;durP2;ratioP2
10479;SDS011;12789;42.610;23.040;2022-12-08T00:01:26;41.07;;;22.73;;
10479;SDS011;12789;42.610;23.040;2022-12-08T00:03:56;41.97;;;22.73;;
10479;SDS011;12789;42.610;23.040;2022-12-08T00:06:24;38.83;;;22.07;;
10479;SDS011;12789;42.610;23.040;2022-12-08T00:09:16;41.73;;;23.10;;
10479;SDS011;12789;42.610;23.040;2022-12-08T00:11:52;41.33;;;21.97;;
10479;SDS011;12789;42.610;23.040;2022-12-08T00:14:24;36.37;;;21.77;;
10479;SDS011;12789;42.610;23.040;2022-12-08T00:16:53;41.10;;;24.30;;
10479;SDS011;12789;42.610;23.040;2022-12-08T00:19:21;39.83;;;24.87;;
10479;SDS011;12789;42.610;23.040;2022-12-08T00:21:48;50.27;;;29.80;;
10479;SDS011;12789;42.610;23.040;2022-12-08T00:24:17;47.30;;;29.77;;
10479;SDS011;12789;42.610;23.040;2022-12-08T00:26:45;47.83;;;27.67;;
10479;SDS011;12789;42.610;23.040;2022-12-08T00:29:13;45.23;;;26.30;;
10479;SDS011;12789;42.610;23.040;2022-12-08T00:31:40;39.87;;;24.00;;
10479;SDS011;12789;42.610;23.040;2022-12-08T00:34:07;36.13;;;22.87;;
10479;SDS011;12789;42.610;23.040;2022-12-08T00:36:34;34.40;;;20.90;;
10479;SDS011;12789;42.610;23.040;2022-12-08T00:39:01;41.17;;;22.10;;
10479;SDS011;12789;42.610;23.040;2022-12-08T00:41:29;31.97;;;20.87;;
10479;SDS011;12789;42.610;23.040;2022-12-08T00:44:15;28.47;;;19.00;;
10479;SDS011;12789;42.610;23.040;2022-12-08T00:46:44;32.93;;;20.63;;
10479;SDS011;12789;42.610;23.040;2022-12-08T00:49:11;32.93;;;19.23;;
10479;SDS011;12789;42.610;23.040;2022-12-08T00:51:39;28.83;;;18.17;;
10479;SDS011;12789;42.610;23.040;2022-12-08T00:54:06;26.20;;;17.77;;
10479;SDS011;12789;42.610;23.040;2022-12-08T00:56:35;29.13;;;17.07;;
10479;SDS011;12789;42.610;23.040;2022-12-08T00:59:03;26.93;;;17.10;;
10479;SDS011;12789;42.610;23.040;2022-12-08T01:01:31;29.40;;;17.37;;
10479;SDS011;12789;42.610;23.040;2022-12-08T01:04:01;25.43;;;17.80;;
10479;SDS011;12789;42.610;23.040;2022-12-08T01:06:29;27.50;;;16.83;;
10479;SDS011;12789;42.610;23.040;2022-12-08T01:08:56;27.13;;;16.50;;
10479;SDS011;12789;42.610;23.040;2022-12-08T01:11:23;24.53;;;16.63;;
10479;SDS011;12789;42.610;23.040;2022-12-08T01:13:52;24.03;;;15.97;;
10479;SDS011;12789;42.610;23.040;2022-12-08T01:16:20;22.23;;;16.53;;
10479;SDS011;12789;42.610;23.040;2022-12-08T01:18:48;26.30;;;16.87;;
10479;SDS011;12789;42.610;23.040;2022-12-08T01:21:15;24.53;;;16.27;;
10479;SDS011;12789;42.610;23.040;2022-12-08T01:23:43;25.00;;;15.60;;
10479;SDS011;12789;42.610;23.040;2022-12-08T01:26:11;25.87;;;16.40;;
10479;SDS011;12789;42.610;23.040;2022-12-08T01:28:41;24.73;;;17.37;;
10479;SDS011;12789;42.610;23.040;2022-12-08T01:31:11;23.67;;;16.70;;
10479;SDS011;12789;42.610;23.040;2022-12-08T01:33:40;26.47;;;18.07;;
10479;SDS011;12789;42.610;23.040;2022-12-08T01:36:08;30.53;;;17.33;;
10479;SDS011;12789;42.610;23.040;2022-12-08T01:38:45;30.87;;;19.10;;
10479;SDS011;12789;42.610;23.040;2022-12-08T01:41:13;35.80;;;20.77;;
10479;SDS011;12789;42.610;23.040;2022-12-08T01:43:54;38.13;;;21.57;;
10479;SDS011;12789;42.610;23.040;2022-12-08T01:46:25;37.70;;;22.33;;
10479;SDS011;12789;42.610;23.040;2022-12-08T01:48:55;36.70;;;20.33;;
10479;SDS011;12789;42.610;23.040;2022-12-08T01:51:59;35.37;;;19.90;;
10479;SDS011;12789;42.610;23.040;2022-12-08T01:54:36;37.43;;;21.10;;
10479;SDS011;12789;42.610;23.040;2022-12-08T01:57:08;36.53;;;21.73;;
10479;SDS011;12789;42.610;23.040;2022-12-08T01:59:38;35.57;;;20.23;;
10479;SDS011;12789;42.610;23.040;2022-12-08T02:02:11;30.87;;;19.50;;
10479;SDS011;12789;42.610;23.040;2022-12-08T02:04:39;25.73;;;17.13;;
10479;SDS011;12789;42.610;23.040;2022-12-08T02:07:06;33.63;;;18.33;;
10479;SDS011;12789;42.610;23.040;2022-12-08T02:09:36;30.20;;;18.53;;
10479;SDS011;12789;42.610;23.040;2022-12-08T02:12:04;35.40;;;20.10;;
10479;SDS011;12789;42.610;23.040;2022-12-08T02:14:32;36.30;;;21.10;;
10479;SDS011;12789;42.610;23.040;2022-12-08T02:17:02;32.73;;;19.93;;
10479;SDS011;12789;42.610;23.040;2022-12-08T02:19:43;27.60;;;18.23;;
10479;SDS011;12789;42.610;23.040;2022-12-08T02:22:31;29.87;;;18.47;;
10479;SDS011;12789;42.610;23.040;2022-12-08T02:25:07;26.03;;;16.83;;
10479;SDS011;12789;42.610;23.040;2022-12-08T02:27:41;23.67;;;16.50;;
10479;SDS011;12789;42.610;23.040;2022-12-08T02:30:19;23.83;;;15.27;;
10479;SDS011;12789;42.610;23.040;2022-12-08T02:33:02;23.30;;;15.30;;
10479;SDS011;12789;42.610;23.040;2022-12-08T02:35:48;21.93;;;15.23;;
10479;SDS011;12789;42.610;23.040;2022-12-08T02:38:25;24.20;;;15.30;;
10479;SDS011;12789;42.610;23.040;2022-12-08T02:41:03;22.97;;;14.97;;
10479;SDS011;12789;42.610;23.040;2022-12-08T02:43:38;19.27;;;14.23;;
10479;SDS011;12789;42.610;23.040;2022-12-08T02:46:10;22.47;;;14.50;;
10479;SDS011;12789;42.610;23.040;2022-12-08T02:48:41;24.33;;;14.53;;
10479;SDS011;12789;42.610;23.040;2022-12-08T02:51:10;19.60;;;13.27;;
10479;SDS011;12789;42.610;23.040;2022-12-08T02:53:37;24.97;;;14.03;;
10479;SDS011;12789;42.610;23.040;2022-12-08T02:56:09;21.60;;;14.13;;
10479;SDS011;12789;42.610;23.040;2022-12-08T02:58:49;21.77;;;14.13;;
10479;SDS011;12789;42.610;23.040;2022-12-08T03:01:37;23.73;;;13.63;;
10479;SDS011;12789;42.610;23.040;2022-12-08T03:04:20;17.77;;;13.30;;
10479;SDS011;12789;42.610;23.040;2022-12-08T03:07:01;21.50;;;14.43;;
10479;SDS011;12789;42.610;23.040;2022-12-08T03:09:34;23.00;;;15.33;;
10479;SDS011;12789;42.610;23.040;2022-12-08T03:12:12;21.70;;;14.67;;
10479;SDS011;12789;42.610;23.040;2022-12-08T03:14:43;22.87;;;14.20;;
10479;SDS011;12789;42.610;23.040;2022-12-08T03:17:13;23.80;;;15.03;;
10479;SDS011;12789;42.610;23.040;2022-12-08T03:19:42;20.40;;;15.40;;
10479;SDS011;12789;42.610;23.040;2022-12-08T03:22:15;21.20;;;15.17;;
10479;SDS011;12789;42.610;23.040;2022-12-08T03:24:46;21.57;;;15.13;;
10479;SDS011;12789;42.610;23.040;2022-12-08T03:27:14;23.03;;;16.13;;
10479;SDS011;12789;42.610;23.040;2022-12-08T03:29:45;21.23;;;14.50;;
10479;SDS011;12789;42.610;23.040;2022-12-08T03:32:15;24.20;;;15.03;;
10479;SDS011;12789;42.610;23.040;2022-12-08T03:35:41;24.37;;;14.93;;
10479;SDS011;12789;42.610;23.040;2022-12-08T03:38:13;23.90;;;15.80;;
10479;SDS011;12789;42.610;23.040;2022-12-08T03:40:42;23.83;;;16.67;;
10479;SDS011;12789;42.610;23.040;2022-12-08T03:43:30;21.33;;;16.33;;
10479;SDS011;12789;42.610;23.040;2022-12-08T03:45:57;24.27;;;15.57;;
10479;SDS011;12789;42.610;23.040;2022-12-08T03:48:24;24.47;;;15.87;;
10479;SDS011;12789;42.610;23.040;2022-12-08T03:50:51;25.73;;;16.77;;
10479;SDS011;12789;42.610;23.040;2022-12-08T03:53:26;25.47;;;16.13;;
10479;SDS011;12789;42.610;23.040;2022-12-08T03:55:53;71.60;;;35.63;;
10479;SDS011;12789;42.610;23.040;2022-12-08T03:58:20;40.37;;;19.03;;
10479;SDS011;12789;42.610;23.040;2022-12-08T04:00:48;112.23;;;46.03;;
10479;SDS011;12789;42.610;23.040;2022-12-08T04:03:15;28.27;;;17.70;;
10479;SDS011;12789;42.610;23.040;2022-12-08T04:05:42;24.07;;;14.13;;
10479;SDS011;12789;42.610;23.040;2022-12-08T04:08:09;21.30;;;13.37;;
10479;SDS011;12789;42.610;23.040;2022-12-08T04:10:38;24.60;;;13.93;;
10479;SDS011;12789;42.610;23.040;2022-12-08T04:13:05;21.33;;;14.50;;
10479;SDS011;12789;42.610;23.040;2022-12-08T04:15:31;25.17;;;15.27;;
10479;SDS011;12789;42.610;23.040;2022-12-08T04:17:58;23.80;;;14.63;;
10479;SDS011;12789;42.610;23.040;2022-12-08T04:20:26;20.00;;;13.07;;
10479;SDS011;12789;42.610;23.040;2022-12-08T04:23:16;20.90;;;14.23;;
10479;SDS011;12789;42.610;23.040;2022-12-08T04:25:45;19.20;;;13.67;;
10479;SDS011;12789;42.610;23.040;2022-12-08T04:28:12;18.40;;;13.07;;
10479;SDS011;12789;42.610;23.040;2022-12-08T04:30:39;22.83;;;13.30;;
10479;SDS011;12789;42.610;23.040;2022-12-08T04:33:06;18.53;;;13.00;;
10479;SDS011;12789;42.610;23.040;2022-12-08T04:35:34;18.77;;;13.67;;
10479;SDS011;12789;42.610;23.040;2022-12-08T04:38:01;18.60;;;13.40;;
10479;SDS011;12789;42.610;23.040;2022-12-08T04:40:28;30.03;;;18.67;;
10479;SDS011;12789;42.610;23.040;2022-12-08T04:42:56;25.73;;;18.07;;
10479;SDS011;12789;42.610;23.040;2022-12-08T04:45:23;20.60;;;14.93;;
10479;SDS011;12789;42.610;23.040;2022-12-08T04:47:51;22.83;;;14.27;;
10479;SDS011;12789;42.610;23.040;2022-12-08T04:50:18;21.73;;;15.90;;
10479;SDS011;12789;42.610;23.040;2022-12-08T04:52:45;23.50;;;15.87;;
10479;SDS011;12789;42.610;23.040;2022-12-08T04:55:12;21.33;;;14.93;;
10479;SDS011;12789;42.610;23.040;2022-12-08T04:57:39;21.20;;;12.97;;
10479;SDS011;12789;42.610;23.040;2022-12-08T05:00:09;20.43;;;13.60;;
10479;SDS011;12789;42.610;23.040;2022-12-08T05:02:45;22.40;;;13.80;;
10479;SDS011;12789;42.610;23.040;2022-12-08T05:05:12;18.97;;;13.03;;
10479;SDS011;12789;42.610;23.040;2022-12-08T05:07:39;19.13;;;12.60;;
10479;SDS011;12789;42.610;23.040;2022-12-08T05:10:06;45.67;;;28.43;;
10479;SDS011;12789;42.610;23.040;2022-12-08T05:12:33;53.50;;;33.37;;
10479;SDS011;12789;42.610;23.040;2022-12-08T05:15:01;61.90;;;39.97;;
10479;SDS011;12789;42.610;23.040;2022-12-08T05:17:30;38.03;;;24.13;;
10479;SDS011;12789;42.610;23.040;2022-12-08T05:19:57;28.67;;;17.73;;
10479;SDS011;12789;42.610;23.040;2022-12-08T05:22:24;49.47;;;29.83;;
10479;SDS011;12789;42.610;23.040;2022-12-08T05:24:51;59.83;;;37.07;;
10479;SDS011;12789;42.610;23.040;2022-12-08T05:27:18;27.93;;;16.23;;
10479;SDS011;12789;42.610;23.040;2022-12-08T05:29:45;25.70;;;17.63;;
10479;SDS011;12789;42.610;23.040;2022-12-08T05:32:13;24.27;;;15.57;;
10479;SDS011;12789;42.610;23.040;2022-12-08T05:34:54;26.77;;;14.80;;
10479;SDS011;12789;42.610;23.040;2022-12-08T05:37:24;24.47;;;13.53;;
10479;SDS011;12789;42.610;23.040;2022-12-08T05:40:23;22.40;;;15.27;;
10479;SDS011;12789;42.610;23.040;2022-12-08T05:42:50;33.03;;;18.90;;
10479;SDS011;12789;42.610;23.040;2022-12-08T05:45:17;23.27;;;15.60;;
10479;SDS011;12789;42.610;23.040;2022-12-08T05:47:44;23.57;;;13.80;;
10479;SDS011;12789;42.610;23.040;2022-12-08T05:50:13;18.87;;;13.00;;
10479;SDS011;12789;42.610;23.040;2022-12-08T05:52:40;22.53;;;15.17;;
10479;SDS011;12789;42.610;23.040;2022-12-08T05:55:08;28.00;;;15.33;;
10479;SDS011;12789;42.610;23.040;2022-12-08T05:57:35;25.57;;;13.40;;
10479;SDS011;12789;42.610;23.040;2022-12-08T06:00:02;38.13;;;21.17;;
10479;SDS011;12789;42.610;23.040;2022-12-08T06:02:30;34.70;;;19.47;;
10479;SDS011;12789;42.610;23.040;2022-12-08T06:04:58;28.37;;;16.47;;
10479;SDS011;12789;42.610;23.040;2022-12-08T06:07:29;156.53;;;90.77;;
10479;SDS011;12789;42.610;23.040;2022-12-08T06:09:57;24.50;;;16.87;;
10479;SDS011;12789;42.610;23.040;2022-12-08T06:12:24;46.30;;;23.63;;
10479;SDS011;12789;42.610;23.040;2022-12-08T06:14:51;38.50;;;20.00;;
10479;SDS011;12789;42.610;23.040;2022-12-08T06:17:18;31.13;;;16.37;;
10479;SDS011;12789;42.610;23.040;2022-12-08T06:19:45;113.60;;;60.80;;
10479;SDS011;12789;42.610;23.040;2022-12-08T06:22:12;159.73;;;89.60;;
10479;SDS011;12789;42.610;23.040;2022-12-08T06:24:41;42.63;;;26.30;;
10479;SDS011;12789;42.610;23.040;2022-12-08T06:27:08;29.03;;;18.00;;
10479;SDS011;12789;42.610;23.040;2022-12-08T06:29:35;22.97;;;15.67;;
10479;SDS011;12789;42.610;23.040;2022-12-08T06:32:02;23.53;;;14.37;;
10479;SDS011;12789;42.610;23.040;2022-12-08T06:34:29;24.93;;;15.70;;
10479;SDS011;12789;42.610;23.040;2022-12-08T06:36:56;56.37;;;29.00;;
10479;SDS011;12789;42.610;23.040;2022-12-08T06:39:23;32.67;;;18.90;;
10479;SDS011;12789;42.610;23.040;2022-12-08T06:41:51;27.80;;;18.30;;
10479;SDS011;12789;42.610;23.040;2022-12-08T06:44:36;23.90;;;16.07;;
10479;SDS011;12789;42.610;23.040;2022-12-08T06:47:03;28.37;;;16.17;;
10479;SDS011;12789;42.610;23.040;2022-12-08T06:49:31;24.27;;;15.77;;
10479;SDS011;12789;42.610;23.040;2022-12-08T06:51:58;25.93;;;16.97;;
10479;SDS011;12789;42.610;23.040;2022-12-08T06:54:27;29.93;;;16.30;;
10479;SDS011;12789;42.610;23.040;2022-12-08T06:56:56;25.90;;;15.77;;
10479;SDS011;12789;42.610;23.040;2022-12-08T06:59:26;34.30;;;17.23;;
10479;SDS011;12789;42.610;23.040;2022-12-08T07:01:57;24.17;;;15.23;;
10479;SDS011;12789;42.610;23.040;2022-12-08T07:04:24;24.43;;;15.07;;
10479;SDS011;12789;42.610;23.040;2022-12-08T07:06:52;24.67;;;15.17;;
10479;SDS011;12789;42.610;23.040;2022-12-08T07:09:19;28.37;;;15.83;;
10479;SDS011;12789;42.610;23.040;2022-12-08T07:11:46;32.93;;;16.73;;
10479;SDS011;12789;42.610;23.040;2022-12-08T07:14:16;36.47;;;19.23;;
10479;SDS011;12789;42.610;23.040;2022-12-08T07:16:44;35.90;;;20.50;;
10479;SDS011;12789;42.610;23.040;2022-12-08T07:19:12;46.70;;;22.30;;
10479;SDS011;12789;42.610;23.040;2022-12-08T07:21:39;34.73;;;19.10;;
10479;SDS011;12789;42.610;23.040;2022-12-08T07:24:07;43.10;;;20.10;;
10479;SDS011;12789;42.610;23.040;2022-12-08T07:26:34;34.17;;;18.00;;
10479;SDS011;12789;42.610;23.040;2022-12-08T07:29:01;25.33;;;16.40;;
10479;SDS011;12789;42.610;23.040;2022-12-08T07:31:31;59.50;;;32.47;;
10479;SDS011;12789;42.610;23.040;2022-12-08T07:33:58;38.23;;;19.30;;
10479;SDS011;12789;42.610;23.040;2022-12-08T07:36:25;32.37;;;18.47;;
10479;SDS011;12789;42.610;23.040;2022-12-08T07:38:52;32.57;;;17.27;;
10479;SDS011;12789;42.610;23.040;2022-12-08T07:41:21;27.77;;;14.27;;
10479;SDS011;12789;42.610;23.040;2022-12-08T07:43:54;22.07;;;15.27;;
10479;SDS011;12789;42.610;23.040;2022-12-08T07:46:23;39.20;;;24.67;;
10479;SDS011;12789;42.610;23.040;2022-12-08T07:48:55;32.13;;;19.63;;
10479;SDS011;12789;42.610;23.040;2022-12-08T07:51:23;21.83;;;15.60;;
10479;SDS011;12789;42.610;23.040;2022-12-08T07:53:51;20.50;;;13.67;;
10479;SDS011;12789;42.610;23.040;2022-12-08T07:56:19;22.63;;;15.67;;
10479;SDS011;12789;42.610;23.040;2022-12-08T07:58:47;29.53;;;21.47;;
10479;SDS011;12789;42.610;23.040;2022-12-08T08:01:18;32.40;;;20.77;;
10479;SDS011;12789;42.610;23.040;2022-12-08T08:03:55;26.13;;;17.17;;
10479;SDS011;12789;42.610;23.040;2022-12-08T08:06:25;25.00;;;15.00;;
10479;SDS011;12789;42.610;23.040;2022-12-08T08:08:53;23.40;;;13.43;;
10479;SDS011;12789;42.610;23.040;2022-12-08T08:11:22;15.70;;;10.63;;
10479;SDS011;12789;42.610;23.040;2022-12-08T08:13:50;14.27;;;10.00;;
10479;SDS011;12789;42.610;23.040;2022-12-08T08:16:18;11.77;;;8.47;;
10479;SDS011;12789;42.610;23.040;2022-12-08T08:18:46;8.20;;;6.87;;
10479;SDS011;12789;42.610;23.040;2022-12-08T08:21:17;8.53;;;6.80;;
10479;SDS011;12789;42.610;23.040;2022-12-08T08:23:48;10.70;;;7.40;;
10479;SDS011;12789;42.610;23.040;2022-12-08T08:26:15;9.43;;;6.90;;
10479;SDS011;12789;42.610;23.040;2022-12-08T08:28:42;13.87;;;8.47;;
10479;SDS011;12789;42.610;23.040;2022-12-08T08:31:12;8.27;;;5.43;;
10479;SDS011;12789;42.610;23.040;2022-12-08T08:33:40;11.40;;;6.00;;
10479;SDS011;12789;42.610;23.040;2022-12-08T08:36:08;6.47;;;5.23;;
10479;SDS011;12789;42.610;23.040;2022-12-08T08:38:37;8.70;;;5.50;;
10479;SDS011;12789;42.610;23.040;2022-12-08T08:41:07;8.73;;;5.27;;
10479;SDS011;12789;42.610;23.040;2022-12-08T08:43:37;5.87;;;4.67;;
10479;SDS011;12789;42.610;23.040;2022-12-08T08:46:04;8.43;;;4.77;;
10479;SDS011;12789;42.610;23.040;2022-12-08T08:48:35;6.30;;;4.37;;
10479;SDS011;12789;42.610;23.040;2022-12-08T08:51:08;9.33;;;5.27;;
10479;SDS011;12789;42.610;23.040;2022-12-08T08:53:40;7.10;;;5.50;;
10479;SDS011;12789;42.610;23.040;2022-12-08T08:56:08;6.23;;;4.70;;
10479;SDS011;12789;42.610;23.040;2022-12-08T08:58:37;8.70;;;5.40;;
10479;SDS011;12789;42.610;23.040;2022-12-08T09:01:04;6.13;;;4.80;;
10479;SDS011;12789;42.610;23.040;2022-12-08T09:03:31;5.57;;;4.47;;
10479;SDS011;12789;42.610;23.040;2022-12-08T09:05:59;6.33;;;4.93;;
10479;SDS011;12789;42.610;23.040;2022-12-08T09:08:26;6.43;;;4.77;;
10479;SDS011;12789;42.610;23.040;2022-12-08T09:10:55;6.17;;;3.90;;
10479;SDS011;12789;42.610;23.040;2022-12-08T09:13:22;9.53;;;3.70;;
10479;SDS011;12789;42.610;23.040;2022-12-08T09:15:49;7.40;;;4.57;;
10479;SDS011;12789;42.610;23.040;2022-12-08T09:18:16;7.97;;;4.30;;
10479;SDS011;12789;42.610;23.040;2022-12-08T09:20:44;6.07;;;4.30;;
10479;SDS011;12789;42.610;23.040;2022-12-08T09:23:11;8.77;;;4.20;;
10479;SDS011;12789;42.610;23.040;2022-12-08T09:25:38;6.43;;;4.67;;
10479;SDS011;12789;42.610;23.040;2022-12-08T09:28:07;5.05;;;3.83;;
10479;SDS011;12789;42.610;23.040;2022-12-08T09:30:34;6.00;;;4.13;;
10479;SDS011;12789;42.610;23.040;2022-12-08T09:33:01;4.18;;;3.53;;
10479;SDS011;12789;42.610;23.040;2022-12-08T09:35:28;9.43;;;4.20;;
10479;SDS011;12789;42.610;23.040;2022-12-08T09:37:56;6.32;;;4.30;;
10479;SDS011;12789;42.610;23.040;2022-12-08T09:40:23;7.10;;;4.15;;
10479;SDS011;12789;42.610;23.040;2022-12-08T09:42:53;4.88;;;4.03;;
10479;SDS011;12789;42.610;23.040;2022-12-08T09:45:29;11.07;;;7.30;;
10479;SDS011;12789;42.610;23.040;2022-12-08T09:48:02;10.60;;;7.28;;
10479;SDS011;12789;42.610;23.040;2022-12-08T09:50:36;7.63;;;5.47;;
10479;SDS011;12789;42.610;23.040;2022-12-08T09:53:11;10.77;;;7.63;;
10479;SDS011;12789;42.610;23.040;2022-12-08T09:55:42;11.98;;;6.95;;
10479;SDS011;12789;42.610;23.040;2022-12-08T09:58:17;6.13;;;3.72;;
10479;SDS011;12789;42.610;23.040;2022-12-08T10:00:48;8.63;;;4.30;;
10479;SDS011;12789;42.610;23.040;2022-12-08T10:03:16;5.88;;;3.88;;
10479;SDS011;12789;42.610;23.040;2022-12-08T10:05:45;6.22;;;3.60;;
10479;SDS011;12789;42.610;23.040;2022-12-08T10:08:17;5.63;;;3.42;;
10479;SDS011;12789;42.610;23.040;2022-12-08T10:10:46;7.32;;;3.80;;
10479;SDS011;12789;42.610;23.040;2022-12-08T10:13:23;4.35;;;3.78;;
10479;SDS011;12789;42.610;23.040;2022-12-08T10:16:06;5.70;;;4.13;;
10479;SDS011;12789;42.610;23.040;2022-12-08T10:18:41;5.70;;;4.05;;
10479;SDS011;12789;42.610;23.040;2022-12-08T10:21:13;10.85;;;3.97;;
10479;SDS011;12789;42.610;23.040;2022-12-08T10:23:43;15.30;;;7.80;;
10479;SDS011;12789;42.610;23.040;2022-12-08T10:26:15;7.28;;;3.72;;
10479;SDS011;12789;42.610;23.040;2022-12-08T10:28:44;9.98;;;4.63;;
10479;SDS011;12789;42.610;23.040;2022-12-08T10:31:20;14.18;;;8.13;;
10479;SDS011;12789;42.610;23.040;2022-12-08T10:33:51;8.82;;;4.60;;
10479;SDS011;12789;42.610;23.040;2022-12-08T10:36:28;10.60;;;3.40;;
10479;SDS011;12789;42.610;23.040;2022-12-08T10:39:19;6.68;;;4.65;;
10479;SDS011;12789;42.610;23.040;2022-12-08T10:41:59;6.43;;;3.72;;
10479;SDS011;12789;42.610;23.040;2022-12-08T10:44:27;8.55;;;3.67;;
10479;SDS011;12789;42.610;23.040;2022-12-08T10:46:56;6.10;;;3.45;;
10479;SDS011;12789;42.610;23.040;2022-12-08T10:49:24;4.00;;;3.13;;
10479;SDS011;12789;42.610;23.040;2022-12-08T10:51:56;4.88;;;3.08;;
10479;SDS011;12789;42.610;23.040;2022-12-08T10:54:25;3.90;;;3.42;;
10479;SDS011;12789;42.610;23.040;2022-12-08T10:56:54;5.78;;;3.60;;
10479;SDS011;12789;42.610;23.040;2022-12-08T10:59:22;5.57;;;3.53;;
10479;SDS011;12789;42.610;23.040;2022-12-08T11:01:51;5.90;;;2.88;;
10479;SDS011;12789;42.610;23.040;2022-12-08T11:04:21;6.93;;;2.70;;
10479;SDS011;12789;42.610;23.040;2022-12-08T11:06:50;16.05;;;9.98;;
10479;SDS011;12789;42.610;23.040;2022-12-08T11:09:23;8.07;;;3.10;;
10479;SDS011;12789;42.610;23.040;2022-12-08T11:11:59;22.88;;;12.85;;
10479;SDS011;12789;42.610;23.040;2022-12-08T11:14:35;19.05;;;8.98;;
10479;SDS011;12789;42.610;23.040;2022-12-08T11:17:16;5.03;;;3.58;;
10479;SDS011;12789;42.610;23.040;2022-12-08T11:19:55;6.32;;;3.20;;
10479;SDS011;12789;42.610;23.040;2022-12-08T11:22:24;7.88;;;3.83;;
10479;SDS011;12789;42.610;23.040;2022-12-08T11:24:58;10.95;;;3.67;;
10479;SDS011;12789;42.610;23.040;2022-12-08T11:27:27;6.97;;;3.80;;
10479;SDS011;12789;42.610;23.040;2022-12-08T11:29:54;4.70;;;3.53;;
10479;SDS011;12789;42.610;23.040;2022-12-08T11:32:21;9.02;;;3.72;;
10479;SDS011;12789;42.610;23.040;2022-12-08T11:34:49;4.32;;;3.78;;
10479;SDS011;12789;42.610;23.040;2022-12-08T11:37:24;5.00;;;3.40;;
10479;SDS011;12789;42.610;23.040;2022-12-08T11:39:56;14.25;;;7.53;;
10479;SDS011;12789;42.610;23.040;2022-12-08T11:42:29;15.75;;;8.13;;
10479;SDS011;12789;42.610;23.040;2022-12-08T11:45:02;10.82;;;5.30;;
10479;SDS011;12789;42.610;23.040;2022-12-08T11:47:34;16.73;;;10.43;;
10479;SDS011;12789;42.610;23.040;2022-12-08T11:50:11;7.38;;;5.28;;
10479;SDS011;12789;42.610;23.040;2022-12-08T11:52:48;5.65;;;3.35;;
10479;SDS011;12789;42.610;23.040;2022-12-08T11:55:28;8.25;;;5.38;;
10479;SDS011;12789;42.610;23.040;2022-12-08T11:58:00;7.97;;;4.80;;
10479;SDS011;12789;42.610;23.040;2022-12-08T12:00:36;10.10;;;4.07;;
10479;SDS011;12789;42.610;23.040;2022-12-08T12:03:05;8.07;;;3.53;;
10479;SDS011;12789;42.610;23.040;2022-12-08T12:05:37;6.38;;;3.83;;
10479;SDS011;12789;42.610;23.040;2022-12-08T12:08:16;6.70;;;3.38;;
10479;SDS011;12789;42.610;23.040;2022-12-08T12:10:57;8.80;;;4.50;;
10479;SDS011;12789;42.610;23.040;2022-12-08T12:13:42;7.10;;;3.72;;
10479;SDS011;12789;42.610;23.040;2022-12-08T12:19:20;7.13;;;3.90;;
10479;SDS011;12789;42.610;23.040;2022-12-08T12:21:50;9.18;;;4.03;;
10479;SDS011;12789;42.610;23.040;2022-12-08T12:24:23;8.15;;;4.10;;
10479;SDS011;12789;42.610;23.040;2022-12-08T12:26:56;11.13;;;5.70;;
10479;SDS011;12789;42.610;23.040;2022-12-08T12:29:26;17.52;;;8.43;;
10479;SDS011;12789;42.610;23.040;2022-12-08T12:31:56;14.43;;;7.65;;
10479;SDS011;12789;42.610;23.040;2022-12-08T12:34:26;20.15;;;8.38;;
10479;SDS011;12789;42.610;23.040;2022-12-08T12:36:56;14.45;;;5.72;;
10479;SDS011;12789;42.610;23.040;2022-12-08T12:39:31;17.40;;;6.13;;
10479;SDS011;12789;42.610;23.040;2022-12-08T12:42:32;12.27;;;7.90;;
10479;SDS011;12789;42.610;23.040;2022-12-08T12:50:48;19.05;;;11.15;;
10479;SDS011;12789;42.610;23.040;2022-12-08T12:59:42;5.78;;;4.53;;
10479;SDS011;12789;42.610;23.040;2022-12-08T13:02:23;7.18;;;4.13;;
10479;SDS011;12789;42.610;23.040;2022-12-08T13:04:58;24.05;;;12.45;;
10479;SDS011;12789;42.610;23.040;2022-12-08T13:07:28;20.20;;;9.50;;
10479;SDS011;12789;42.610;23.040;2022-12-08T13:10:00;13.35;;;6.18;;
10479;SDS011;12789;42.610;23.040;2022-12-08T13:13:00;10.23;;;4.72;;
10479;SDS011;12789;42.610;23.040;2022-12-08T13:15:33;8.77;;;4.43;;
10479;SDS011;12789;42.610;23.040;2022-12-08T13:18:03;6.18;;;3.58;;
10479;SDS011;12789;42.610;23.040;2022-12-08T13:20:33;12.75;;;5.82;;
10479;SDS011;12789;42.610;23.040;2022-12-08T13:23:27;9.10;;;5.63;;
10479;SDS011;12789;42.610;23.040;2022-12-08T13:26:08;10.40;;;5.50;;
10479;SDS011;12789;42.610;23.040;2022-12-08T13:31:39;8.90;;;5.55;;
10479;SDS011;12789;42.610;23.040;2022-12-08T13:34:11;8.73;;;4.45;;
10479;SDS011;12789;42.610;23.040;2022-12-08T13:36:49;16.55;;;5.72;;
10479;SDS011;12789;42.610;23.040;2022-12-08T13:39:23;7.35;;;5.05;;
10479;SDS011;12789;42.610;23.040;2022-12-08T13:41:58;10.40;;;5.45;;
10479;SDS011;12789;42.610;23.040;2022-12-08T13:44:33;5.53;;;4.20;;
10479;SDS011;12789;42.610;23.040;2022-12-08T13:47:10;12.45;;;4.85;;
10479;SDS011;12789;42.610;23.040;2022-12-08T13:49:41;6.43;;;4.70;;
10479;SDS011;12789;42.610;23.040;2022-12-08T13:52:16;14.00;;;5.82;;
10479;SDS011;12789;42.610;23.040;2022-12-08T13:54:53;26.52;;;17.83;;
10479;SDS011;12789;42.610;23.040;2022-12-08T13:57:23;11.50;;;7.25;;
10479;SDS011;12789;42.610;23.040;2022-12-08T13:59:58;15.18;;;10.48;;
10479;SDS011;12789;42.610;23.040;2022-12-08T14:02:26;11.63;;;6.45;;
10479;SDS011;12789;42.610;23.040;2022-12-08T14:04:58;9.38;;;5.50;;
10479;SDS011;12789;42.610;23.040;2022-12-08T14:07:26;10.02;;;5.97;;
10479;SDS011;12789;42.610;23.040;2022-12-08T14:09:53;8.50;;;6.10;;
10479;SDS011;12789;42.610;23.040;2022-12-08T14:12:21;12.30;;;6.38;;
10479;SDS011;12789;42.610;23.040;2022-12-08T14:14:50;11.93;;;5.70;;
10479;SDS011;12789;42.610;23.040;2022-12-08T14:17:21;10.30;;;5.05;;
10479;SDS011;12789;42.610;23.040;2022-12-08T14:19:52;7.75;;;4.30;;
10479;SDS011;12789;42.610;23.040;2022-12-08T14:22:22;13.65;;;6.65;;
10479;SDS011;12789;42.610;23.040;2022-12-08T14:24:50;8.30;;;4.88;;
10479;SDS011;12789;42.610;23.040;2022-12-08T14:27:21;17.17;;;9.70;;
10479;SDS011;12789;42.610;23.040;2022-12-08T14:29:51;12.43;;;6.00;;
10479;SDS011;12789;42.610;23.040;2022-12-08T14:32:23;17.98;;;14.02;;
10479;SDS011;12789;42.610;23.040;2022-12-08T14:34:54;16.35;;;7.85;;
10479;SDS011;12789;42.610;23.040;2022-12-08T14:37:23;9.02;;;5.40;;
10479;SDS011;12789;42.610;23.040;2022-12-08T14:39:52;42.03;;;26.27;;
10479;SDS011;12789;42.610;23.040;2022-12-08T14:42:26;12.32;;;10.02;;
10479;SDS011;12789;42.610;23.040;2022-12-08T14:44:55;11.15;;;5.90;;
10479;SDS011;12789;42.610;23.040;2022-12-08T14:47:28;7.20;;;5.10;;
10479;SDS011;12789;42.610;23.040;2022-12-08T14:49:57;24.73;;;10.30;;
10479;SDS011;12789;42.610;23.040;2022-12-08T14:52:24;18.00;;;9.60;;
10479;SDS011;12789;42.610;23.040;2022-12-08T14:54:53;14.17;;;5.27;;
10479;SDS011;12789;42.610;23.040;2022-12-08T14:57:21;20.20;;;12.38;;